sensor_id;sensor_type;location;lat;lon;timestamp;pressure;altitude;pressure_sealevel;temperature;humidity
23253;BME280;11795;47.054;15.408;2022-07-29T00:00:00;97350;;;22.4;67.2
23253;BME280;11795;47.054;15.408;2022-07-29T00:02:00;97350;;;22.4;67.1
23253;BME280;11795;47.054;15.408;2022-07-29T00:04:00;97350;;;22.3;67.4
23253;BME280;11795;47.054;15.408;2022-07-29T00:06:00;97350;;;22.5;66.9
23253;BME280;11795;47.054;15.408;2022-07-29T00:08:00;97350;;;22.4;67.3
23253;BME280;11795;47.054;15.408;2022-07-29T00:10:00;97350;;;22.4;67.2
23253;BME280;11795;47.054;15.408;2022-07-29T00:12:01;97350;;;22.4;67.1
23253;BME280;11795;47.054;15.408;2022-07-29T00:14:00;97350;;;22.3;67.4
23253;BME280;11795;47.054;15.408;2022-07-29T00:16:00;97350;;;22.5;66.9
23253;BME280;11795;47.054;15.408;2022-07-29T00:18:00;97350;;;22.3;67.4
23253;BME280;11795;47.054;15.408;2022-07-29T00:20:00;97350;;;22.4;67.3
23253;BME280;11795;47.054;15.408;2022-07-29T00:22:00;97350;;;22.4;67.0
23253;BME280;11795;47.054;15.408;2022-07-29T00:24:00;97350;;;22.3;67.6
23253;BME280;11795;47.054;15.408;2022-07-29T00:26:00;97350;;;22.5;67.2
23253;BME280;11795;47.054;15.408;2022-07-29T00:28:00;97350;;;22.3;67.6
23253;BME280;11795;47.054;15.408;2022-07-29T00:30:00;97350;;;22.3;67.7
23253;BME280;11795;47.054;15.408;2022-07-29T00:32:00;97350;;;22.3;67.5
23253;BME280;11795;47.054;15.408;2022-07-29T00:34:00;97350;;;22.2;67.9
23253;BME280;11795;47.054;15.408;2022-07-29T00:36:00;97350;;;22.4;67.5
23253;BME280;11795;47.054;15.408;2022-07-29T00:38:00;97350;;;22.2;68.1
23253;BME280;11795;47.054;15.408;2022-07-29T00:40:00;97350;;;22.2;68.4
23253;BME280;11795;47.054;15.408;2022-07-29T00:42:02;97350;;;22.2;68.3
23253;BME280;11795;47.054;15.408;2022-07-29T00:44:00;97340;;;22.1;68.7
23253;BME280;11795;47.054;15.408;2022-07-29T00:46:00;97340;;;22.3;68.0
23253;BME280;11795;47.054;15.408;2022-07-29T00:48:00;97340;;;22.1;68.5
23253;BME280;11795;47.054;15.408;2022-07-29T00:50:00;97340;;;22.1;68.6
23253;BME280;11795;47.054;15.408;2022-07-29T00:52:00;97340;;;22.2;68.4
23253;BME280;11795;47.054;15.408;2022-07-29T00:54:00;97340;;;22.1;68.9
23253;BME280;11795;47.054;15.408;2022-07-29T00:56:00;97340;;;22.2;68.4
23253;BME280;11795;47.054;15.408;2022-07-29T00:58:00;97340;;;22.1;68.8
23253;BME280;11795;47.054;15.408;2022-07-29T01:00:00;97330;;;22.1;69.0
23253;BME280;11795;47.054;15.408;2022-07-29T01:02:00;97330;;;22.2;68.6
23253;BME280;11795;47.054;15.408;2022-07-29T01:04:00;97330;;;22.1;69.0
23253;BME280;11795;47.054;15.408;2022-07-29T01:06:00;97330;;;22.3;68.5
23253;BME280;11795;47.054;15.408;2022-07-29T01:08:00;97330;;;22.1;68.9
23253;BME280;11795;47.054;15.408;2022-07-29T01:10:01;97330;;;22.1;69.2
23253;BME280;11795;47.054;15.408;2022-07-29T01:12:01;97330;;;22.2;68.7
23253;BME280;11795;47.054;15.408;2022-07-29T01:14:00;97330;;;22.0;69.2
23253;BME280;11795;47.054;15.408;2022-07-29T01:16:03;97330;;;22.2;68.8
23253;BME280;11795;47.054;15.408;2022-07-29T01:18:04;97330;;;22.1;69.1
23253;BME280;11795;47.054;15.408;2022-07-29T01:20:05;97330;;;22.0;69.6
23253;BME280;11795;47.054;15.408;2022-07-29T01:22:09;97330;;;22.1;69.1
23253;BME280;11795;47.054;15.408;2022-07-29T01:24:12;97330;;;22.0;69.5
23253;BME280;11795;47.054;15.408;2022-07-29T01:26:08;97330;;;22.2;68.8
23253;BME280;11795;47.054;15.408;2022-07-29T01:28:17;97330;;;22.0;69.1
23253;BME280;11795;47.054;15.408;2022-07-29T01:30:01;97330;;;22.0;69.5
23253;BME280;11795;47.054;15.408;2022-07-29T01:32:02;97330;;;22.1;69.1
23253;BME280;11795;47.054;15.408;2022-07-29T01:34:04;97330;;;22.0;69.5
23253;BME280;11795;47.054;15.408;2022-07-29T01:36:01;97330;;;22.1;69.0
23253;BME280;11795;47.054;15.408;2022-07-29T01:38:04;97330;;;22.0;69.8
23253;BME280;11795;47.054;15.408;2022-07-29T01:40:02;97330;;;21.9;70.2
23253;BME280;11795;47.054;15.408;2022-07-29T01:42:06;97320;;;22.0;69.6
23253;BME280;11795;47.054;15.408;2022-07-29T01:44:02;97330;;;21.9;70.0
23253;BME280;11795;47.054;15.408;2022-07-29T01:46:03;97320;;;22.1;69.4
23253;BME280;11795;47.054;15.408;2022-07-29T01:48:04;97320;;;21.9;69.7
23253;BME280;11795;47.054;15.408;2022-07-29T01:50:01;97330;;;21.9;70.0
23253;BME280;11795;47.054;15.408;2022-07-29T01:52:03;97320;;;21.9;69.8
23253;BME280;11795;47.054;15.408;2022-07-29T01:54:04;97320;;;21.8;70.3
23253;BME280;11795;47.054;15.408;2022-07-29T01:56:02;97310;;;22.0;69.9
23253;BME280;11795;47.054;15.408;2022-07-29T01:58:03;97320;;;21.8;70.2
23253;BME280;11795;47.054;15.408;2022-07-29T02:00:00;97320;;;21.8;70.4
23253;BME280;11795;47.054;15.408;2022-07-29T02:02:00;97320;;;21.8;70.2
23253;BME280;11795;47.054;15.408;2022-07-29T02:04:02;97320;;;21.6;70.8
23253;BME280;11795;47.054;15.408;2022-07-29T02:06:01;97320;;;21.8;70.2
23253;BME280;11795;47.054;15.408;2022-07-29T02:08:01;97310;;;21.6;70.5
23253;BME280;11795;47.054;15.408;2022-07-29T02:10:02;97310;;;21.5;70.8
23253;BME280;11795;47.054;15.408;2022-07-29T02:12:03;97310;;;21.7;70.2
23253;BME280;11795;47.054;15.408;2022-07-29T02:14:00;97310;;;21.5;70.6
23253;BME280;11795;47.054;15.408;2022-07-29T02:16:00;97310;;;21.7;70.1
23253;BME280;11795;47.054;15.408;2022-07-29T02:18:02;97310;;;21.5;70.5
23253;BME280;11795;47.054;15.408;2022-07-29T02:20:03;97310;;;21.5;70.8
23253;BME280;11795;47.054;15.408;2022-07-29T02:22:01;97300;;;21.6;70.3
23253;BME280;11795;47.054;15.408;2022-07-29T02:24:01;97300;;;21.4;70.7
23253;BME280;11795;47.054;15.408;2022-07-29T02:26:01;97300;;;21.6;70.0
23253;BME280;11795;47.054;15.408;2022-07-29T02:28:02;97300;;;21.5;70.4
23253;BME280;11795;47.054;15.408;2022-07-29T02:30:01;97300;;;21.4;70.8
23253;BME280;11795;47.054;15.408;2022-07-29T02:32:01;97300;;;21.5;70.4
23253;BME280;11795;47.054;15.408;2022-07-29T02:34:02;97300;;;21.4;71.0
23253;BME280;11795;47.054;15.408;2022-07-29T02:36:01;97290;;;21.5;70.7
23253;BME280;11795;47.054;15.408;2022-07-29T02:38:13;97300;;;21.3;71.1
23253;BME280;11795;47.054;15.408;2022-07-29T02:40:00;97290;;;21.2;71.6
23253;BME280;11795;47.054;15.408;2022-07-29T02:42:05;97290;;;21.4;71.0
23253;BME280;11795;47.054;15.408;2022-07-29T02:44:03;97290;;;21.2;71.6
23253;BME280;11795;47.054;15.408;2022-07-29T02:46:01;97290;;;21.4;71.1
23253;BME280;11795;47.054;15.408;2022-07-29T02:48:05;97290;;;21.2;71.3
23253;BME280;11795;47.054;15.408;2022-07-29T02:50:04;97290;;;21.1;71.8
23253;BME280;11795;47.054;15.408;2022-07-29T02:52:02;97290;;;21.2;71.2
23253;BME280;11795;47.054;15.408;2022-07-29T02:54:05;97290;;;21.1;71.8
23253;BME280;11795;47.054;15.408;2022-07-29T02:56:05;97290;;;21.3;71.2
23253;BME280;11795;47.054;15.408;2022-07-29T02:58:01;97290;;;21.1;71.3
23253;BME280;11795;47.054;15.408;2022-07-29T03:00:04;97290;;;21.0;71.9
23253;BME280;11795;47.054;15.408;2022-07-29T03:02:02;97290;;;21.1;71.5
23253;BME280;11795;47.054;15.408;2022-07-29T03:04:03;97290;;;21.0;72.0
23253;BME280;11795;47.054;15.408;2022-07-29T03:06:01;97290;;;21.2;71.8
23253;BME280;11795;47.054;15.408;2022-07-29T03:08:02;97290;;;21.0;72.3
23253;BME280;11795;47.054;15.408;2022-07-29T03:10:00;97290;;;20.9;72.6
23253;BME280;11795;47.054;15.408;2022-07-29T03:12:01;97290;;;21.0;71.9
23253;BME280;11795;47.054;15.408;2022-07-29T03:14:01;97290;;;20.8;72.4
23253;BME280;11795;47.054;15.408;2022-07-29T03:16:00;97290;;;21.0;72.2
23253;BME280;11795;47.054;15.408;2022-07-29T03:18:00;97290;;;20.8;72.5
23253;BME280;11795;47.054;15.408;2022-07-29T03:20:01;97290;;;20.7;72.8
23253;BME280;11795;47.054;15.408;2022-07-29T03:22:00;97290;;;20.9;72.3
23253;BME280;11795;47.054;15.408;2022-07-29T03:24:00;97290;;;20.7;73.0
23253;BME280;11795;47.054;15.408;2022-07-29T03:26:00;97290;;;20.9;72.7
23253;BME280;11795;47.054;15.408;2022-07-29T03:28:00;97300;;;20.7;72.9
23253;BME280;11795;47.054;15.408;2022-07-29T03:30:00;97300;;;20.7;73.4
23253;BME280;11795;47.054;15.408;2022-07-29T03:32:02;97290;;;20.8;72.9
23253;BME280;11795;47.054;15.408;2022-07-29T03:34:00;97300;;;20.6;73.5
23253;BME280;11795;47.054;15.408;2022-07-29T03:36:02;97290;;;20.7;73.6
23253;BME280;11795;47.054;15.408;2022-07-29T03:38:00;97290;;;20.5;73.8
23253;BME280;11795;47.054;15.408;2022-07-29T03:40:02;97290;;;20.4;74.2
23253;BME280;11795;47.054;15.408;2022-07-29T03:42:01;97290;;;20.5;73.6
23253;BME280;11795;47.054;15.408;2022-07-29T03:44:00;97300;;;20.4;74.1
23253;BME280;11795;47.054;15.408;2022-07-29T03:46:00;97300;;;20.5;73.8
23253;BME280;11795;47.054;15.408;2022-07-29T03:48:05;97300;;;20.5;73.7
23253;BME280;11795;47.054;15.408;2022-07-29T03:50:06;97300;;;20.3;74.2
23253;BME280;11795;47.054;15.408;2022-07-29T03:52:00;97290;;;20.5;73.5
23253;BME280;11795;47.054;15.408;2022-07-29T03:54:00;97290;;;20.4;74.0
23253;BME280;11795;47.054;15.408;2022-07-29T03:56:02;97300;;;20.5;73.8
23253;BME280;11795;47.054;15.408;2022-07-29T03:58:00;97300;;;20.4;73.7
23253;BME280;11795;47.054;15.408;2022-07-29T04:00:02;97300;;;20.3;74.1
23253;BME280;11795;47.054;15.408;2022-07-29T04:02:02;97300;;;20.5;73.6
23253;BME280;11795;47.054;15.408;2022-07-29T04:04:01;97310;;;20.3;74.2
23253;BME280;11795;47.054;15.408;2022-07-29T04:06:02;97300;;;20.4;74.2
23253;BME280;11795;47.054;15.408;2022-07-29T04:08:00;97310;;;20.3;74.5
23253;BME280;11795;47.054;15.408;2022-07-29T04:10:00;97310;;;20.2;74.8
23253;BME280;11795;47.054;15.408;2022-07-29T04:12:00;97310;;;20.4;74.1
23253;BME280;11795;47.054;15.408;2022-07-29T04:14:00;97310;;;20.2;74.7
23253;BME280;11795;47.054;15.408;2022-07-29T04:16:00;97310;;;20.3;74.8
23253;BME280;11795;47.054;15.408;2022-07-29T04:18:00;97310;;;20.3;74.7
23253;BME280;11795;47.054;15.408;2022-07-29T04:20:00;97310;;;20.3;75.0
23253;BME280;11795;47.054;15.408;2022-07-29T04:22:00;97310;;;20.5;74.2
23253;BME280;11795;47.054;15.408;2022-07-29T04:24:00;97310;;;20.3;74.6
23253;BME280;11795;47.054;15.408;2022-07-29T04:26:01;97310;;;20.4;74.6
23253;BME280;11795;47.054;15.408;2022-07-29T04:28:00;97310;;;20.4;74.3
23253;BME280;11795;47.054;15.408;2022-07-29T04:30:01;97320;;;20.4;74.5
23253;BME280;11795;47.054;15.408;2022-07-29T04:32:00;97310;;;20.6;73.7
23253;BME280;11795;47.054;15.408;2022-07-29T04:34:00;97310;;;20.5;74.3
23253;BME280;11795;47.054;15.408;2022-07-29T04:36:00;97310;;;20.6;74.1
23253;BME280;11795;47.054;15.408;2022-07-29T04:38:00;97320;;;20.6;73.6
23253;BME280;11795;47.054;15.408;2022-07-29T04:40:00;97310;;;20.6;73.8
23253;BME280;11795;47.054;15.408;2022-07-29T04:42:00;97310;;;20.8;73.1
23253;BME280;11795;47.054;15.408;2022-07-29T04:44:05;97310;;;20.7;73.5
23253;BME280;11795;47.054;15.408;2022-07-29T04:46:00;97310;;;20.8;73.4
23253;BME280;11795;47.054;15.408;2022-07-29T04:48:00;97320;;;20.9;73.1
23253;BME280;11795;47.054;15.408;2022-07-29T04:50:00;97320;;;20.8;73.3
23253;BME280;11795;47.054;15.408;2022-07-29T04:52:00;97320;;;21.0;72.4
23253;BME280;11795;47.054;15.408;2022-07-29T04:54:00;97320;;;21.0;72.7
23253;BME280;11795;47.054;15.408;2022-07-29T04:56:00;97320;;;21.0;72.6
23253;BME280;11795;47.054;15.408;2022-07-29T04:58:00;97320;;;21.1;72.2
23253;BME280;11795;47.054;15.408;2022-07-29T05:00:00;97320;;;21.0;72.6
23253;BME280;11795;47.054;15.408;2022-07-29T05:02:00;97320;;;21.2;72.0
23253;BME280;11795;47.054;15.408;2022-07-29T05:04:00;97320;;;21.1;72.3
23253;BME280;11795;47.054;15.408;2022-07-29T05:06:00;97320;;;21.2;72.3
23253;BME280;11795;47.054;15.408;2022-07-29T05:08:00;97320;;;21.4;71.3
23253;BME280;11795;47.054;15.408;2022-07-29T05:10:00;97320;;;21.4;71.5
23253;BME280;11795;47.054;15.408;2022-07-29T05:12:00;97320;;;21.5;71.3
23253;BME280;11795;47.054;15.408;2022-07-29T05:14:00;97320;;;21.5;71.6
23253;BME280;11795;47.054;15.408;2022-07-29T05:16:00;97310;;;21.4;71.9
23253;BME280;11795;47.054;15.408;2022-07-29T05:18:00;97320;;;21.6;71.2
23253;BME280;11795;47.054;15.408;2022-07-29T05:20:00;97310;;;21.7;71.5
23253;BME280;11795;47.054;15.408;2022-07-29T05:22:00;97320;;;22.0;70.4
23253;BME280;11795;47.054;15.408;2022-07-29T05:24:00;97320;;;22.0;70.3
23253;BME280;11795;47.054;15.408;2022-07-29T05:26:00;97320;;;22.1;70.0
23253;BME280;11795;47.054;15.408;2022-07-29T05:28:00;97320;;;22.3;68.9
23253;BME280;11795;47.054;15.408;2022-07-29T05:30:00;97320;;;22.4;68.4
23253;BME280;11795;47.054;15.408;2022-07-29T05:32:00;97320;;;22.6;67.8
23253;BME280;11795;47.054;15.408;2022-07-29T05:34:00;97320;;;22.6;67.5
23253;BME280;11795;47.054;15.408;2022-07-29T05:36:00;97320;;;22.7;67.0
23253;BME280;11795;47.054;15.408;2022-07-29T05:38:00;97330;;;22.9;66.4
23253;BME280;11795;47.054;15.408;2022-07-29T05:40:00;97330;;;22.9;65.9
23253;BME280;11795;47.054;15.408;2022-07-29T05:42:00;97330;;;23.1;65.2
23253;BME280;11795;47.054;15.408;2022-07-29T05:44:00;97330;;;23.1;65.4
23253;BME280;11795;47.054;15.408;2022-07-29T05:46:00;97330;;;23.2;65.5
23253;BME280;11795;47.054;15.408;2022-07-29T05:48:00;97330;;;23.5;64.6
23253;BME280;11795;47.054;15.408;2022-07-29T05:50:00;97320;;;23.4;63.7
23253;BME280;11795;47.054;15.408;2022-07-29T05:52:00;97330;;;23.6;63.2
23253;BME280;11795;47.054;15.408;2022-07-29T05:54:00;97330;;;23.6;63.3
23253;BME280;11795;47.054;15.408;2022-07-29T05:56:03;97330;;;23.6;63.2
23253;BME280;11795;47.054;15.408;2022-07-29T05:58:00;97330;;;23.8;62.9
23253;BME280;11795;47.054;15.408;2022-07-29T06:00:00;97330;;;23.9;62.8
23253;BME280;11795;47.054;15.408;2022-07-29T06:02:00;97330;;;24.1;62.3
23253;BME280;11795;47.054;15.408;2022-07-29T06:04:00;97320;;;24.0;62.1
23253;BME280;11795;47.054;15.408;2022-07-29T06:06:00;97320;;;24.1;61.9
23253;BME280;11795;47.054;15.408;2022-07-29T06:08:00;97320;;;24.3;61.4
23253;BME280;11795;47.054;15.408;2022-07-29T06:10:00;97330;;;24.3;61.0
23253;BME280;11795;47.054;15.408;2022-07-29T06:12:00;97320;;;24.5;60.3
23253;BME280;11795;47.054;15.408;2022-07-29T06:14:00;97320;;;24.5;60.5
23253;BME280;11795;47.054;15.408;2022-07-29T06:16:00;97320;;;24.6;60.4
23253;BME280;11795;47.054;15.408;2022-07-29T06:18:00;97330;;;24.8;59.7
23253;BME280;11795;47.054;15.408;2022-07-29T06:20:00;97320;;;24.8;59.3
23253;BME280;11795;47.054;15.408;2022-07-29T06:22:00;97320;;;25.1;58.3
23253;BME280;11795;47.054;15.408;2022-07-29T06:24:00;97320;;;25.0;58.0
23253;BME280;11795;47.054;15.408;2022-07-29T06:26:00;97320;;;25.0;57.9
23253;BME280;11795;47.054;15.408;2022-07-29T06:28:00;97320;;;25.1;57.8
23253;BME280;11795;47.054;15.408;2022-07-29T06:30:02;97330;;;25.1;57.5
23253;BME280;11795;47.054;15.408;2022-07-29T06:32:00;97320;;;25.3;57.4
23253;BME280;11795;47.054;15.408;2022-07-29T06:34:00;97320;;;25.2;57.3
23253;BME280;11795;47.054;15.408;2022-07-29T06:36:00;97330;;;25.2;57.8
23253;BME280;11795;47.054;15.408;2022-07-29T06:38:00;97320;;;25.5;56.8
23253;BME280;11795;47.054;15.408;2022-07-29T06:40:11;97320;;;25.5;57.1
23253;BME280;11795;47.054;15.408;2022-07-29T06:42:00;97320;;;25.7;55.5
23253;BME280;11795;47.054;15.408;2022-07-29T06:44:00;97320;;;25.7;55.3
23253;BME280;11795;47.054;15.408;2022-07-29T06:46:02;97320;;;25.7;55.1
23253;BME280;11795;47.054;15.408;2022-07-29T06:48:00;97320;;;25.9;54.8
23253;BME280;11795;47.054;15.408;2022-07-29T06:50:00;97320;;;25.9;55.3
23253;BME280;11795;47.054;15.408;2022-07-29T06:52:00;97320;;;26.2;55.1
23253;BME280;11795;47.054;15.408;2022-07-29T06:54:00;97320;;;26.2;54.4
23253;BME280;11795;47.054;15.408;2022-07-29T06:56:01;97320;;;26.1;54.7
23253;BME280;11795;47.054;15.408;2022-07-29T06:58:00;97320;;;26.4;54.2
23253;BME280;11795;47.054;15.408;2022-07-29T07:00:00;97320;;;26.4;53.9
23253;BME280;11795;47.054;15.408;2022-07-29T07:02:00;97320;;;26.7;52.9
23253;BME280;11795;47.054;15.408;2022-07-29T07:04:00;97320;;;26.7;52.7
23253;BME280;11795;47.054;15.408;2022-07-29T07:06:00;97320;;;26.8;52.4
23253;BME280;11795;47.054;15.408;2022-07-29T07:08:00;97320;;;27.0;51.6
23253;BME280;11795;47.054;15.408;2022-07-29T07:10:00;97330;;;27.0;51.8
23253;BME280;11795;47.054;15.408;2022-07-29T07:12:00;97330;;;27.3;50.6
23253;BME280;11795;47.054;15.408;2022-07-29T07:14:00;97330;;;27.2;50.2
23253;BME280;11795;47.054;15.408;2022-07-29T07:16:00;97330;;;27.3;50.8
23253;BME280;11795;47.054;15.408;2022-07-29T07:18:00;97320;;;27.5;49.3
23253;BME280;11795;47.054;15.408;2022-07-29T07:20:00;97320;;;27.4;50.4
23253;BME280;11795;47.054;15.408;2022-07-29T07:22:00;97320;;;27.6;48.9
23253;BME280;11795;47.054;15.408;2022-07-29T07:24:00;97320;;;27.6;49.2
23253;BME280;11795;47.054;15.408;2022-07-29T07:26:00;97320;;;27.6;48.4
23253;BME280;11795;47.054;15.408;2022-07-29T07:28:00;97320;;;27.8;47.6
23253;BME280;11795;47.054;15.408;2022-07-29T07:30:00;97330;;;27.7;48.7
23253;BME280;11795;47.054;15.408;2022-07-29T07:32:00;97330;;;27.9;48.9
23253;BME280;11795;47.054;15.408;2022-07-29T07:34:00;97320;;;27.9;47.6
23253;BME280;11795;47.054;15.408;2022-07-29T07:36:00;97320;;;27.9;48.9
23253;BME280;11795;47.054;15.408;2022-07-29T07:38:00;97320;;;28.2;48.1
23253;BME280;11795;47.054;15.408;2022-07-29T07:40:01;97320;;;28.2;47.6
23253;BME280;11795;47.054;15.408;2022-07-29T07:42:00;97320;;;28.4;47.3
23253;BME280;11795;47.054;15.408;2022-07-29T07:44:00;97320;;;28.5;47.3
23253;BME280;11795;47.054;15.408;2022-07-29T07:46:00;97320;;;28.6;45.6
23253;BME280;11795;47.054;15.408;2022-07-29T07:48:00;97320;;;28.8;45.7
23253;BME280;11795;47.054;15.408;2022-07-29T07:50:00;97320;;;28.8;44.9
23253;BME280;11795;47.054;15.408;2022-07-29T07:52:00;97320;;;29.0;45.1
23253;BME280;11795;47.054;15.408;2022-07-29T07:54:00;97320;;;29.1;44.5
23253;BME280;11795;47.054;15.408;2022-07-29T07:56:00;97320;;;29.1;44.5
23253;BME280;11795;47.054;15.408;2022-07-29T07:58:00;97310;;;29.4;43.9
23253;BME280;11795;47.054;15.408;2022-07-29T08:00:00;97310;;;29.3;43.4
23253;BME280;11795;47.054;15.408;2022-07-29T08:02:01;97310;;;29.3;44.0
23253;BME280;11795;47.054;15.408;2022-07-29T08:04:00;97320;;;29.3;42.3
23253;BME280;11795;47.054;15.408;2022-07-29T08:06:00;97320;;;29.1;42.7
23253;BME280;11795;47.054;15.408;2022-07-29T08:08:00;97310;;;29.4;43.1
23253;BME280;11795;47.054;15.408;2022-07-29T08:10:00;97320;;;29.4;41.7
23253;BME280;11795;47.054;15.408;2022-07-29T08:12:03;97310;;;29.4;42.4
23253;BME280;11795;47.054;15.408;2022-07-29T08:14:01;97310;;;29.5;41.6
23253;BME280;11795;47.054;15.408;2022-07-29T08:16:01;97320;;;29.5;41.7
23253;BME280;11795;47.054;15.408;2022-07-29T08:18:00;97320;;;29.6;42.1
23253;BME280;11795;47.054;15.408;2022-07-29T08:20:00;97320;;;29.4;42.1
23253;BME280;11795;47.054;15.408;2022-07-29T08:22:00;97320;;;29.4;41.9
23253;BME280;11795;47.054;15.408;2022-07-29T08:24:10;97320;;;29.3;42.0
23253;BME280;11795;47.054;15.408;2022-07-29T08:26:00;97320;;;29.3;42.7
23253;BME280;11795;47.054;15.408;2022-07-29T08:28:00;97320;;;29.5;42.3
23253;BME280;11795;47.054;15.408;2022-07-29T08:30:00;97320;;;29.5;42.1
23253;BME280;11795;47.054;15.408;2022-07-29T08:32:00;97320;;;29.6;42.6
23253;BME280;11795;47.054;15.408;2022-07-29T08:34:00;97330;;;29.8;41.5
23253;BME280;11795;47.054;15.408;2022-07-29T08:36:00;97330;;;29.9;42.3
23253;BME280;11795;47.054;15.408;2022-07-29T08:38:00;97330;;;30.2;41.4
23253;BME280;11795;47.054;15.408;2022-07-29T08:40:00;97330;;;30.1;39.9
23253;BME280;11795;47.054;15.408;2022-07-29T08:42:00;97340;;;29.9;39.1
23253;BME280;11795;47.054;15.408;2022-07-29T08:44:00;97330;;;29.7;39.1
23253;BME280;11795;47.054;15.408;2022-07-29T08:46:00;97340;;;29.2;40.1
23253;BME280;11795;47.054;15.408;2022-07-29T08:48:00;97340;;;29.0;40.7
23253;BME280;11795;47.054;15.408;2022-07-29T08:50:00;97340;;;29.0;40.8
23253;BME280;11795;47.054;15.408;2022-07-29T08:52:00;97340;;;28.5;41.5
23253;BME280;11795;47.054;15.408;2022-07-29T08:54:01;97340;;;28.5;42.3
23253;BME280;11795;47.054;15.408;2022-07-29T08:56:00;97350;;;28.6;41.7
23253;BME280;11795;47.054;15.408;2022-07-29T08:58:00;97350;;;28.8;41.6
23253;BME280;11795;47.054;15.408;2022-07-29T09:00:02;97350;;;28.7;42.1
23253;BME280;11795;47.054;15.408;2022-07-29T09:02:01;97350;;;28.7;41.6
23253;BME280;11795;47.054;15.408;2022-07-29T09:04:03;97350;;;28.6;42.4
23253;BME280;11795;47.054;15.408;2022-07-29T09:06:01;97350;;;28.6;42.1
23253;BME280;11795;47.054;15.408;2022-07-29T09:08:01;97350;;;28.5;42.3
23253;BME280;11795;47.054;15.408;2022-07-29T09:10:01;97350;;;28.5;43.0
23253;BME280;11795;47.054;15.408;2022-07-29T09:12:00;97350;;;28.4;43.6
23253;BME280;11795;47.054;15.408;2022-07-29T09:14:00;97350;;;28.4;43.1
23253;BME280;11795;47.054;15.408;2022-07-29T09:16:00;97350;;;28.3;43.2
23253;BME280;11795;47.054;15.408;2022-07-29T09:18:00;97350;;;28.5;42.9
23253;BME280;11795;47.054;15.408;2022-07-29T09:20:09;97350;;;28.4;43.0
23253;BME280;11795;47.054;15.408;2022-07-29T09:22:02;97350;;;28.4;43.7
23253;BME280;11795;47.054;15.408;2022-07-29T09:24:03;97350;;;28.2;44.0
23253;BME280;11795;47.054;15.408;2022-07-29T09:26:05;97360;;;28.0;45.0
23253;BME280;11795;47.054;15.408;2022-07-29T09:28:05;97360;;;28.0;44.9
23253;BME280;11795;47.054;15.408;2022-07-29T09:30:02;97360;;;27.9;45.2
23253;BME280;11795;47.054;15.408;2022-07-29T09:32:00;97360;;;27.9;44.7
23253;BME280;11795;47.054;15.408;2022-07-29T09:34:00;97360;;;28.0;44.6
23253;BME280;11795;47.054;15.408;2022-07-29T09:36:03;97360;;;27.8;45.0
23253;BME280;11795;47.054;15.408;2022-07-29T09:38:10;97360;;;27.7;44.8
23253;BME280;11795;47.054;15.408;2022-07-29T09:40:12;97360;;;27.7;45.4
23253;BME280;11795;47.054;15.408;2022-07-29T09:42:02;97360;;;27.8;45.3
23253;BME280;11795;47.054;15.408;2022-07-29T09:44:01;97360;;;27.9;45.1
23253;BME280;11795;47.054;15.408;2022-07-29T09:46:09;97360;;;28.0;44.9
23253;BME280;11795;47.054;15.408;2022-07-29T09:48:13;97350;;;28.1;44.3
23253;BME280;11795;47.054;15.408;2022-07-29T09:50:00;97360;;;28.0;45.1
23253;BME280;11795;47.054;15.408;2022-07-29T09:52:06;97360;;;27.8;45.3
23253;BME280;11795;47.054;15.408;2022-07-29T09:54:00;97350;;;27.9;45.9
23253;BME280;11795;47.054;15.408;2022-07-29T09:56:00;97350;;;27.8;45.3
23253;BME280;11795;47.054;15.408;2022-07-29T09:58:17;97350;;;28.1;45.4
23253;BME280;11795;47.054;15.408;2022-07-29T10:00:02;97350;;;28.2;45.4
23253;BME280;11795;47.054;15.408;2022-07-29T10:02:00;97360;;;28.3;44.2
23253;BME280;11795;47.054;15.408;2022-07-29T10:04:00;97360;;;28.2;44.5
23253;BME280;11795;47.054;15.408;2022-07-29T10:06:06;97360;;;28.2;43.7
23253;BME280;11795;47.054;15.408;2022-07-29T10:08:02;97360;;;28.1;44.0
23253;BME280;11795;47.054;15.408;2022-07-29T10:10:01;97360;;;28.0;44.6
23253;BME280;11795;47.054;15.408;2022-07-29T10:12:06;97360;;;28.0;43.9
23253;BME280;11795;47.054;15.408;2022-07-29T10:14:01;97360;;;28.0;44.4
23253;BME280;11795;47.054;15.408;2022-07-29T10:16:00;97350;;;27.8;44.3
23253;BME280;11795;47.054;15.408;2022-07-29T10:18:00;97350;;;27.9;44.0
23253;BME280;11795;47.054;15.408;2022-07-29T10:20:00;97350;;;27.9;44.2
23253;BME280;11795;47.054;15.408;2022-07-29T10:22:02;97350;;;27.8;44.8
23253;BME280;11795;47.054;15.408;2022-07-29T10:24:00;97350;;;27.8;44.8
23253;BME280;11795;47.054;15.408;2022-07-29T10:26:00;97350;;;27.7;44.8
23253;BME280;11795;47.054;15.408;2022-07-29T10:28:00;97350;;;27.7;44.3
23253;BME280;11795;47.054;15.408;2022-07-29T10:30:02;97350;;;27.5;45.0
23253;BME280;11795;47.054;15.408;2022-07-29T10:32:10;97350;;;27.5;44.7
23253;BME280;11795;47.054;15.408;2022-07-29T10:34:04;97350;;;27.5;44.8
23253;BME280;11795;47.054;15.408;2022-07-29T10:36:05;97340;;;27.5;45.0
23253;BME280;11795;47.054;15.408;2022-07-29T10:38:15;97350;;;27.5;44.7
23253;BME280;11795;47.054;15.408;2022-07-29T10:40:05;97340;;;27.4;44.5
23253;BME280;11795;47.054;15.408;2022-07-29T10:42:08;97350;;;27.3;44.7
23253;BME280;11795;47.054;15.408;2022-07-29T10:44:01;97340;;;27.3;45.2
23253;BME280;11795;47.054;15.408;2022-07-29T10:46:00;97340;;;27.2;45.3
23253;BME280;11795;47.054;15.408;2022-07-29T10:48:04;97330;;;27.3;45.4
23253;BME280;11795;47.054;15.408;2022-07-29T10:50:01;97330;;;27.3;45.8
23253;BME280;11795;47.054;15.408;2022-07-29T10:52:03;97330;;;27.4;45.0
23253;BME280;11795;47.054;15.408;2022-07-29T10:54:05;97330;;;27.3;45.6
23253;BME280;11795;47.054;15.408;2022-07-29T10:56:00;97330;;;27.4;45.7
23253;BME280;11795;47.054;15.408;2022-07-29T10:58:10;97330;;;27.5;45.2
23253;BME280;11795;47.054;15.408;2022-07-29T11:02:00;97330;;;27.5;45.6
23253;BME280;11795;47.054;15.408;2022-07-29T11:04:00;97320;;;27.7;44.6
23253;BME280;11795;47.054;15.408;2022-07-29T11:06:00;97330;;;27.7;44.8
23253;BME280;11795;47.054;15.408;2022-07-29T11:08:18;97320;;;28.0;44.8
23253;BME280;11795;47.054;15.408;2022-07-29T11:10:19;97320;;;28.2;45.4
23253;BME280;11795;47.054;15.408;2022-07-29T11:12:00;97320;;;28.3;44.8